Time;durP1;ratioP1;P1;durP2;ratioP2;P2;SDS_P1;SDS_P2;PMS_P1;PMS_P2;Temp;Humidity;BMP_temperature;BMP_pressure;BME280_temperature;BME280_humidity;BME280_pressure;Samples;Min_cycle;Max_cycle;Signal;HPM_P1;HPM_P2
2022/01/23 00:02:07;;;;;;;11.03;7.50;;;4.40;99.90;;;5.25;100.00;99849.94;4956365;28;20471;-83
2022/01/23 00:04:52;;;;;;;16.50;9.80;;;4.50;99.90;;;5.25;100.00;99855.97;4936808;29;20556;-93
2022/01/23 00:07:33;;;;;;;13.83;6.80;;;4.50;99.90;;;5.27;100.00;99864.50;4933733;29;20518;-93
2022/01/23 00:10:09;;;;;;;13.83;6.17;;;4.50;99.90;;;5.25;100.00;99866.34;4931383;29;20506;-92
2022/01/23 00:12:46;;;;;;;10.40;6.77;;;4.40;99.90;;;5.26;100.00;99868.00;4928751;29;20501;-91
2022/01/23 00:18:18;;;;;;;10.40;7.00;;;4.40;99.90;;;5.22;100.00;99879.53;4882568;29;20463;-93
2022/01/23 00:21:03;;;;;;;10.87;6.70;;;4.40;99.90;;;5.18;100.00;99869.47;4884063;29;20521;-92
2022/01/23 00:32:54;;;;;;;10.03;6.80;;;4.40;99.90;;;5.19;100.00;99846.03;4948800;29;20459;-92
2022/01/23 00:39:32;;;;;;;15.80;6.00;;;4.20;99.90;;;5.12;100.00;99846.56;4943865;28;20466;-94
2022/01/23 00:42:16;;;;;;;13.80;7.93;;;4.30;99.90;;;5.14;100.00;99847.31;4942587;29;20585;-93
2022/01/23 00:45:00;;;;;;;12.40;6.73;;;4.30;99.90;;;5.15;100.00;99849.78;4936691;29;20570;-93
2022/01/23 00:47:32;;;;;;;13.17;6.67;;;4.30;99.90;;;5.13;100.00;99841.28;4929461;29;20466;-92
2022/01/23 00:50:03;;;;;;;12.40;7.23;;;4.30;99.90;;;5.13;100.00;99843.88;4938987;29;20485;-92
2022/01/23 00:56:44;;;;;;;13.30;8.00;;;4.30;99.90;;;5.09;100.00;99839.84;4940644;29;20991;-89
2022/01/23 00:59:15;;;;;;;13.23;7.40;;;4.20;99.90;;;5.08;100.00;99833.00;4938638;29;20557;-91
2022/01/23 01:01:47;;;;;;;11.23;7.60;;;4.20;99.90;;;5.08;100.00;99835.59;4923003;29;20471;-90
2022/01/23 01:04:18;;;;;;;12.90;8.00;;;4.20;99.90;;;5.08;100.00;99827.81;4922093;29;20471;-91
2022/01/23 01:06:48;;;;;;;13.70;7.87;;;4.20;99.90;;;5.12;100.00;99825.84;4926776;29;20510;-89
2022/01/23 01:10:13;;;;;;;13.80;8.60;;;4.30;99.90;;;5.16;100.00;99828.13;4933359;29;20455;-93
2022/01/23 01:13:00;;;;;;;13.20;8.93;;;4.50;99.90;;;5.16;100.00;99825.53;4930002;29;20525;-92
2022/01/23 01:16:01;;;;;;;15.67;8.00;;;4.40;99.90;;;5.14;100.00;99811.00;4951171;29;20545;-92
2022/01/23 01:31:08;;;;;;;10.27;6.37;;;4.30;99.90;;;5.14;100.00;99842.13;4948462;29;20473;-91
2022/01/23 01:34:05;;;;;;;15.50;7.90;;;4.50;99.90;;;5.14;100.00;99842.94;4950207;29;20494;-93
2022/01/23 01:37:11;;;;;;;11.33;7.30;;;4.30;99.90;;;5.17;100.00;99832.38;4948247;28;20462;-92
2022/01/23 01:40:38;;;;;;;19.17;8.57;;;4.30;99.90;;;5.17;100.00;99837.56;4957840;29;20442;-93
2022/01/23 01:44:11;;;;;;;15.67;7.60;;;4.40;99.90;;;5.14;100.00;99832.56;4948026;29;20490;-92
2022/01/23 01:47:19;;;;;;;12.63;7.53;;;4.40;99.90;;;5.15;100.00;99839.41;4950149;29;20494;-93
2022/01/23 01:50:10;;;;;;;14.90;7.63;;;4.30;99.90;;;5.15;100.00;99839.41;4934729;29;21006;-92
2022/01/23 01:56:51;;;;;;;9.17;6.97;;;4.40;99.90;;;5.18;100.00;99833.16;4941284;29;20478;-92
2022/01/23 02:08:47;;;;;;;15.47;7.97;;;4.40;99.90;;;5.17;100.00;99811.63;4930287;29;20512;-92
2022/01/23 02:15:13;;;;;;;12.40;7.83;;;4.20;99.90;;;5.16;100.00;99799.59;4926468;29;20460;-92
2022/01/23 02:54:18;;;;;;;12.23;8.07;;;4.20;99.90;;;5.10;100.00;99812.16;4946626;29;20494;-92
2022/01/23 02:57:37;;;;;;;20.10;8.43;;;4.30;99.90;;;5.12;100.00;99818.88;4945957;29;20505;-93
2022/01/23 03:00:35;;;;;;;16.10;8.27;;;4.30;99.90;;;5.11;100.00;99819.81;4948765;29;20466;-91
2022/01/23 03:03:28;;;;;;;17.83;8.40;;;4.30;99.90;;;5.11;100.00;99814.63;4947019;29;20474;-92
2022/01/23 03:10:09;;;;;;;16.90;8.97;;;4.20;99.90;;;5.11;100.00;99830.19;4948902;29;20473;-91
2022/01/23 03:24:04;;;;;;;14.63;7.90;;;4.30;99.90;;;5.10;100.00;99825.97;4942428;29;20545;-91
2022/01/23 03:35:39;;;;;;;13.93;8.80;;;4.30;99.90;;;5.09;100.00;99829.47;4946770;29;20462;-92
2022/01/23 03:39:25;;;;;;;16.43;9.17;;;4.20;99.90;;;5.07;100.00;99828.75;4953420;29;20478;-93
2022/01/23 03:42:13;;;;;;;23.23;10.30;;;4.20;99.90;;;5.01;100.00;99840.38;4945438;29;20474;-93
2022/01/23 03:45:32;;;;;;;29.90;10.40;;;4.20;99.90;;;5.05;100.00;99833.22;4947248;29;20907;-92
2022/01/23 03:50:58;;;;;;;16.13;8.83;;;4.20;99.90;;;5.00;100.00;99824.94;4927854;29;20543;-91
2022/01/23 03:53:55;;;;;;;14.63;8.60;;;4.20;99.90;;;5.02;100.00;99825.66;4927280;29;20475;-93
2022/01/23 03:56:46;;;;;;;15.03;8.57;;;4.20;99.90;;;5.04;100.00;99828.97;4928040;29;20467;-92
2022/01/23 04:00:02;;;;;;;13.47;9.37;;;4.20;99.90;;;5.01;100.00;99822.25;4928785;29;20960;-93
2022/01/23 04:03:03;;;;;;;16.60;9.00;;;4.20;99.90;;;5.01;100.00;99816.22;4929136;29;20532;-93
2022/01/23 04:05:46;;;;;;;13.90;9.03;;;4.20;99.90;;;5.04;100.00;99809.06;4924267;29;20534;-92
2022/01/23 04:08:35;;;;;;;16.20;8.50;;;4.20;99.90;;;5.06;100.00;99820.16;4930089;29;20864;-91
2022/01/23 04:11:27;;;;;;;15.07;8.07;;;4.30;99.90;;;5.06;100.00;99820.16;4923389;29;20470;-92
2022/01/23 04:20:48;;;;;;;14.13;8.17;;;4.20;99.90;;;5.07;100.00;99805.41;4906943;29;20974;-93
2022/01/23 04:32:45;;;;;;;13.23;8.03;;;4.20;99.90;;;5.03;100.00;99801.41;4930113;29;20467;-92
2022/01/23 04:46:23;;;;;;;12.63;8.07;;;4.10;99.90;;;4.93;100.00;99829.72;4933464;28;20530;-92
2022/01/23 05:08:30;;;;;;;18.07;7.70;;;4.20;99.90;;;4.98;100.00;99834.59;4940884;29;20988;-93
2022/01/23 05:14:11;;;;;;;15.03;9.20;;;4.20;99.90;;;5.00;100.00;99846.50;4951867;29;20473;-91
2022/01/23 05:16:49;;;;;;;18.30;8.60;;;4.20;99.90;;;4.98;100.00;99842.38;4950197;29;20484;-92
2022/01/23 05:19:56;;;;;;;16.93;8.90;;;4.20;99.90;;;4.98;100.00;99847.53;4949044;29;20515;-93
2022/01/23 05:23:17;;;;;;;15.00;9.33;;;4.30;99.90;;;5.01;100.00;99835.19;4953780;29;20508;-93
2022/01/23 05:35:19;;;;;;;15.13;9.13;;;4.10;99.90;;;4.98;100.00;99829.41;4945801;29;20484;-92
2022/01/23 05:38:13;;;;;;;15.00;8.20;;;4.30;99.90;;;4.98;100.00;99826.81;4928888;29;20461;-92
2022/01/23 05:41:03;;;;;;;15.10;8.23;;;4.20;99.90;;;4.97;100.00;99832.91;4944578;29;20486;-92
2022/01/23 05:43:55;;;;;;;13.93;8.00;;;4.20;99.90;;;4.92;100.00;99832.44;4937434;29;20470;-93
2022/01/23 05:46:51;;;;;;;13.43;8.00;;;4.10;99.90;;;4.95;100.00;99830.44;4944394;29;20498;-92
2022/01/23 05:52:27;;;;;;;14.97;9.10;;;4.10;99.90;;;4.89;100.00;99828.31;4935810;29;20467;-91
2022/01/23 05:55:11;;;;;;;16.83;8.30;;;4.10;99.90;;;4.89;100.00;99837.84;4937541;29;20470;-93
2022/01/23 05:57:53;;;;;;;12.27;7.67;;;4.10;99.90;;;4.92;100.00;99838.44;4942742;29;20462;-93
2022/01/23 06:00:29;;;;;;;16.80;8.80;;;4.10;99.90;;;4.92;100.00;99848.81;4944901;29;20460;-91
2022/01/23 06:03:23;;;;;;;14.60;8.07;;;4.10;99.90;;;4.96;100.00;99857.22;4947842;29;21020;-92
2022/01/23 06:06:30;;;;;;;13.93;8.13;;;4.20;99.90;;;4.96;100.00;99857.22;4894877;29;20457;-92
2022/01/23 06:12:30;;;;;;;13.03;8.13;;;4.20;99.90;;;4.98;100.00;99860.50;4942093;29;20474;-92
2022/01/23 06:15:29;;;;;;;15.30;7.40;;;4.20;99.90;;;4.91;100.00;99861.88;4943136;29;20465;-92
2022/01/23 06:21:21;;;;;;;16.63;9.83;;;4.10;99.90;;;4.94;100.00;99877.19;4950612;28;20530;-93
2022/01/23 06:30:01;;;;;;;11.97;7.30;;;4.00;99.90;;;4.92;100.00;99873.91;4946887;29;20474;-92
2022/01/23 06:32:45;;;;;;;16.43;7.97;;;4.00;99.90;;;4.84;100.00;99860.63;4946657;28;20502;-92
2022/01/23 06:35:37;;;;;;;12.70;7.90;;;4.10;99.90;;;4.87;100.00;99860.41;4931906;29;20477;-93
2022/01/23 06:41:28;;;;;;;15.03;7.50;;;4.10;99.90;;;4.91;100.00;99869.66;4952216;29;20468;-92
2022/01/23 06:44:02;;;;;;;19.43;8.57;;;4.10;99.90;;;4.86;100.00;99875.13;4941839;29;20574;-93
2022/01/23 06:49:39;;;;;;;12.30;7.13;;;4.10;99.90;;;4.85;100.00;99881.28;4939742;29;20545;-93
2022/01/23 06:52:20;;;;;;;12.03;7.90;;;4.10;99.90;;;4.89;100.00;99890.50;4944371;29;20568;-93
2022/01/23 06:54:55;;;;;;;12.10;7.40;;;4.10;99.90;;;4.90;100.00;99894.72;4943569;29;20533;-92
2022/01/23 06:57:39;;;;;;;15.87;7.43;;;4.00;99.90;;;4.90;100.00;99901.66;4944854;29;20470;-92
2022/01/23 07:00:25;;;;;;;14.10;8.27;;;4.00;99.90;;;4.89;100.00;99900.03;4944927;29;20490;-93
2022/01/23 07:03:05;;;;;;;13.07;7.47;;;4.10;99.90;;;4.89;100.00;99889.66;4942337;29;20922;-91
2022/01/23 07:05:44;;;;;;;14.43;7.07;;;4.10;99.90;;;4.88;100.00;99894.03;4943534;28;20469;-93
2022/01/23 07:08:37;;;;;;;15.77;7.60;;;4.10;99.90;;;4.92;100.00;99894.63;4942725;29;20497;-92
2022/01/23 07:11:30;;;;;;;9.50;6.53;;;4.10;99.90;;;4.88;100.00;99898.38;4946161;29;20514;-93
2022/01/23 07:14:07;;;;;;;10.83;7.60;;;4.10;99.90;;;4.85;100.00;99898.59;4942136;29;20462;-92
2022/01/23 07:16:51;;;;;;;13.73;6.97;;;4.10;99.90;;;4.89;100.00;99910.41;4944526;29;20905;-92
2022/01/23 07:19:29;;;;;;;13.93;7.50;;;4.10;99.90;;;4.87;100.00;99912.25;4945936;29;20494;-92
2022/01/23 07:22:14;;;;;;;14.90;8.50;;;4.00;99.90;;;4.88;100.00;99906.97;4944428;29;21014;-93
2022/01/23 07:25:14;;;;;;;14.23;7.23;;;4.20;99.90;;;4.90;100.00;99906.84;4949714;29;20467;-92
2022/01/23 07:28:01;;;;;;;17.50;7.97;;;4.20;99.90;;;4.91;100.00;99908.53;4947683;29;20489;-93
2022/01/23 07:30:49;;;;;;;14.50;7.40;;;4.20;99.90;;;4.93;100.00;99909.22;4949767;29;20490;-92
2022/01/23 07:33:23;;;;;;;20.30;10.70;;;4.30;99.90;;;4.93;100.00;99909.22;4929166;29;20490;-90
2022/01/23 07:35:56;;;;;;;14.70;8.10;;;4.20;99.90;;;4.96;100.00;99916.81;4931080;29;20616;-93
2022/01/23 07:38:30;;;;;;;14.50;8.43;;;4.20;99.90;;;4.99;100.00;99911.41;4943932;29;20462;-93
2022/01/23 07:41:02;;;;;;;12.90;7.60;;;4.20;99.90;;;5.00;100.00;99924.25;4940676;29;20475;-75
2022/01/23 07:43:34;;;;;;;11.37;7.80;;;4.20;99.90;;;5.03;100.00;99920.66;4922508;29;20800;-75
2022/01/23 07:46:04;;;;;;;15.17;9.10;;;4.30;99.90;;;5.03;100.00;99920.66;4867872;29;1620675;-78
2022/01/23 07:48:34;;;;;;;102.50;48.80;;;4.40;99.90;;;5.03;100.00;99929.22;4920121;29;20509;-76
2022/01/23 07:51:06;;;;;;;14.83;9.43;;;4.40;99.90;;;5.04;100.00;99941.28;4924298;29;20482;-75
2022/01/23 07:53:36;;;;;;;14.33;7.80;;;4.30;99.90;;;5.05;100.00;99937.75;4923265;29;20465;-75
2022/01/23 07:56:06;;;;;;;14.90;8.30;;;4.40;99.90;;;5.07;100.00;99940.22;4923073;29;20466;-75
2022/01/23 07:58:36;;;;;;;12.40;7.20;;;4.40;99.90;;;5.10;100.00;99939.19;4921089;29;20466;-75
2022/01/23 08:01:06;;;;;;;12.50;8.00;;;4.40;99.90;;;5.13;100.00;99950.19;4923649;29;20489;-75
2022/01/23 08:03:37;;;;;;;9.93;7.27;;;4.40;99.90;;;5.09;100.00;99948.75;4920620;29;20474;-75
2022/01/23 08:06:11;;;;;;;13.43;8.00;;;4.30;99.90;;;5.11;100.00;99944.25;4922302;29;21452;-75
2022/01/23 08:08:41;;;;;;;12.37;8.00;;;4.30;99.90;;;5.12;100.00;99951.13;4917660;29;20947;-75
2022/01/23 08:11:11;;;;;;;10.23;6.80;;;4.30;99.90;;;5.11;100.00;99943.44;4918674;29;21121;-75
2022/01/23 08:13:41;;;;;;;11.40;7.17;;;4.30;99.90;;;5.13;100.00;99950.19;4924066;29;20553;-75
2022/01/23 08:16:11;;;;;;;21.30;6.77;;;4.40;99.90;;;5.16;100.00;99946.56;4918901;29;20914;-75
2022/01/23 08:18:42;;;;;;;12.80;7.90;;;4.40;99.90;;;5.17;100.00;99943.88;4919803;29;20561;-74
2022/01/23 08:21:13;;;;;;;22.87;10.00;;;4.40;99.90;;;5.18;100.00;99947.25;4920850;29;20493;-74
2022/01/23 08:23:43;;;;;;;11.90;6.57;;;4.50;99.90;;;5.19;100.00;99936.78;4925542;29;20470;-75
2022/01/23 08:26:14;;;;;;;12.93;7.17;;;4.50;99.90;;;5.17;100.00;99946.47;4924794;29;20510;-74
2022/01/23 08:28:44;;;;;;;13.43;7.20;;;4.50;99.90;;;5.20;100.00;99946.25;4920744;29;20557;-75
2022/01/23 08:31:14;;;;;;;11.83;6.90;;;4.50;99.90;;;5.24;100.00;99947.66;4921681;29;20498;-74
2022/01/23 08:33:44;;;;;;;8.53;6.00;;;4.50;99.90;;;5.23;100.00;99951.22;4922302;29;20528;-75
2022/01/23 08:36:16;;;;;;;10.23;6.90;;;4.50;99.90;;;5.27;100.00;99947.47;4921416;29;20466;-75
2022/01/23 08:38:46;;;;;;;12.37;6.90;;;4.50;99.90;;;5.26;100.00;99951.00;4921337;29;20477;-75
2022/01/23 08:44:05;;;;;;;10.30;6.57;;;4.50;99.90;;;5.26;100.00;99956.19;4922653;29;20463;-75
2022/01/23 08:46:36;;;;;;;10.80;6.33;;;4.50;99.90;;;5.28;100.00;99958.66;4918268;29;20490;-75
2022/01/23 08:49:07;;;;;;;11.20;6.70;;;4.50;99.90;;;5.28;100.00;99962.06;4923389;29;20585;-75
2022/01/23 08:51:39;;;;;;;12.57;8.40;;;4.50;99.90;;;5.30;100.00;99956.81;4922870;29;20862;-75
2022/01/23 08:54:12;;;;;;;12.47;7.53;;;4.50;99.90;;;5.32;100.00;99957.50;4918724;29;20472;-75
2022/01/23 08:56:41;;;;;;;12.47;8.63;;;4.60;99.90;;;5.33;100.00;99957.41;4920999;29;20468;-75
2022/01/23 08:59:12;;;;;;;11.10;7.37;;;4.60;99.90;;;5.33;100.00;99959.19;4920215;29;20558;-75
2022/01/23 09:01:42;;;;;;;11.27;7.83;;;4.60;99.90;;;5.37;100.00;99963.22;4920265;29;20467;-75
2022/01/23 09:04:15;;;;;;;14.73;8.53;;;4.60;99.90;;;5.38;100.00;99963.09;4918431;29;20470;-75
2022/01/23 09:06:48;;;;;;;13.20;7.40;;;4.60;99.90;;;5.34;100.00;99966.88;4920222;29;20524;-74
2022/01/23 09:09:19;;;;;;;11.00;7.93;;;4.60;99.90;;;5.36;100.00;99967.56;4919559;29;20482;-75
2022/01/23 09:11:58;;;;;;;14.80;8.47;;;4.60;99.90;;;5.35;100.00;99962.47;4919027;29;20466;-75
2022/01/23 09:14:30;;;;;;;19.70;8.37;;;4.50;99.90;;;5.36;100.00;99959.78;4919302;29;20496;-75
2022/01/23 09:17:07;;;;;;;14.50;8.60;;;4.50;99.90;;;5.37;100.00;99961.47;4920297;29;20553;-75
2022/01/23 09:19:39;;;;;;;13.00;8.93;;;4.50;99.90;;;5.37;100.00;99961.47;4921531;29;20470;-75
2022/01/23 09:22:11;;;;;;;12.73;7.40;;;4.50;99.90;;;5.37;100.00;99964.06;4915294;29;20581;-75
2022/01/23 09:24:41;;;;;;;14.40;7.70;;;4.50;99.90;;;5.38;100.00;99973.47;4920363;29;20470;-75
2022/01/23 09:27:18;;;;;;;16.67;7.57;;;4.50;99.90;;;5.38;100.00;99968.28;4919582;29;20744;-75
2022/01/23 09:29:53;;;;;;;14.97;8.70;;;4.60;99.90;;;5.39;100.00;99964.75;4902904;29;20570;-75
2022/01/23 09:32:26;;;;;;;11.90;7.60;;;4.60;99.90;;;5.42;100.00;99969.72;4919969;29;20527;-75
2022/01/23 09:34:57;;;;;;;14.33;7.47;;;4.60;99.90;;;5.43;100.00;99968.81;4918909;29;20559;-75
2022/01/23 09:37:29;;;;;;;10.57;7.13;;;4.70;99.90;;;5.46;100.00;99968.59;4922441;29;20479;-75
2022/01/23 09:40:00;;;;;;;11.80;7.57;;;4.70;99.90;;;5.45;100.00;99961.72;4921334;29;20581;-75
2022/01/23 09:42:36;;;;;;;18.40;8.00;;;4.70;99.90;;;5.45;100.00;99961.72;4920360;29;21019;-75
2022/01/23 09:45:10;;;;;;;14.43;8.17;;;4.70;99.90;;;5.45;100.00;99961.72;4920804;29;20474;-75
2022/01/23 09:47:42;;;;;;;13.47;8.00;;;4.70;99.90;;;5.49;100.00;99959.75;4916714;29;20472;-75
2022/01/23 09:50:15;;;;;;;11.30;7.43;;;4.70;99.90;;;5.47;100.00;99959.03;4918788;29;21079;-75
2022/01/23 09:52:46;;;;;;;18.20;7.97;;;4.70;99.90;;;5.52;100.00;99959.53;4917727;29;21018;-75
2022/01/23 09:55:16;;;;;;;13.20;8.13;;;4.90;99.90;;;5.51;100.00;99966.50;4915563;29;20466;-74
2022/01/23 09:57:48;;;;;;;11.50;8.40;;;4.80;99.90;;;5.48;100.00;99963.31;4918656;29;20502;-75
2022/01/23 10:00:20;;;;;;;14.23;8.37;;;4.80;99.90;;;5.50;100.00;99964.00;4919751;29;20468;-74
2022/01/23 10:02:50;;;;;;;15.20;7.87;;;4.80;99.90;;;5.49;100.00;99963.19;4917228;29;20972;-75
2022/01/23 10:05:21;;;;;;;14.23;8.13;;;4.90;99.90;;;5.46;100.00;99959.97;4921927;29;20475;-75
2022/01/23 10:07:54;;;;;;;14.30;8.60;;;4.70;99.90;;;5.47;100.00;99969.44;4923748;29;27442;-75
2022/01/23 10:10:27;;;;;;;16.13;7.90;;;4.80;99.90;;;5.47;100.00;99962.47;4920367;29;20629;-75
2022/01/23 10:13:01;;;;;;;12.70;8.43;;;4.80;99.90;;;5.47;100.00;99964.22;4921380;29;20462;-75
2022/01/23 10:15:32;;;;;;;12.40;8.13;;;4.70;99.90;;;5.50;100.00;99964.84;4917491;29;20473;-75
2022/01/23 10:18:04;;;;;;;14.07;7.27;;;4.90;99.90;;;5.51;100.00;99970.88;4919397;29;20466;-75
2022/01/23 10:20:33;;;;;;;10.60;7.40;;;4.90;99.90;;;5.47;100.00;99965.06;4919001;29;20494;-75
2022/01/23 10:23:03;;;;;;;15.40;8.50;;;4.90;99.90;;;5.40;100.00;99963.00;4922125;29;20478;-75
2022/01/23 10:25:35;;;;;;;14.83;9.10;;;4.70;99.90;;;5.42;100.00;99966.31;4919815;29;20506;-75
2022/01/23 10:28:08;;;;;;;19.83;8.93;;;4.70;99.90;;;5.46;100.00;99966.00;4920831;29;20470;-74
2022/01/23 10:30:44;;;;;;;13.60;8.60;;;4.70;99.90;;;5.47;100.00;99964.22;4919669;29;20494;-75
2022/01/23 10:33:18;;;;;;;13.20;7.97;;;4.70;99.90;;;5.46;100.00;99957.38;4922938;29;20462;-75
2022/01/23 10:36:21;;;;;;;12.03;8.10;;;4.80;99.90;;;5.48;100.00;99961.50;4922528;29;20958;-75
2022/01/23 10:39:00;;;;;;;21.03;9.03;;;4.80;99.90;;;5.47;100.00;99954.69;4923248;29;20542;-75
2022/01/23 10:41:46;;;;;;;13.53;7.17;;;4.80;99.90;;;5.50;100.00;99948.44;4923741;29;20514;-75
2022/01/23 10:47:44;;;;;;;14.07;8.10;;;4.90;99.90;;;5.45;100.00;99947.94;4920601;29;20526;-75
2022/01/23 10:50:13;;;;;;;16.03;9.07;;;4.90;99.90;;;5.47;100.00;99946.91;4923588;29;20530;-75
2022/01/23 10:52:48;;;;;;;12.03;7.53;;;4.90;99.90;;;5.42;100.00;99956.75;4922530;29;20455;-75
2022/01/23 10:55:32;;;;;;;12.80;7.87;;;4.80;99.90;;;5.43;100.00;99955.84;4924161;29;20478;-75
2022/01/23 10:58:18;;;;;;;11.90;7.70;;;4.70;99.90;;;5.46;100.00;99955.63;4923151;29;20856;-76
2022/01/23 11:00:50;;;;;;;13.70;7.00;;;4.80;99.90;;;5.42;100.00;99955.94;4923423;29;20455;-75
2022/01/23 11:03:24;;;;;;;10.10;6.60;;;4.70;99.90;;;5.47;100.00;99949.50;4921360;29;20505;-75
2022/01/23 11:05:55;;;;;;;11.73;6.90;;;4.80;99.90;;;5.50;100.00;99944.09;4923337;29;20465;-75
2022/01/23 11:08:27;;;;;;;9.50;6.37;;;4.80;99.90;;;5.48;100.00;99945.94;4923301;29;20455;-75
2022/01/23 11:11:00;;;;;;;9.37;5.70;;;4.80;99.90;;;5.53;100.00;99941.28;4926170;29;20505;-75
2022/01/23 11:19:22;;;;;;;11.20;6.90;;;4.90;99.90;;;5.46;100.00;99945.25;4927218;29;20469;-75
2022/01/23 11:21:53;;;;;;;9.80;6.40;;;4.90;99.90;;;5.46;100.00;99942.66;4926370;29;20525;-74
2022/01/23 11:24:35;;;;;;;10.70;6.83;;;4.80;99.90;;;5.47;100.00;99939.13;4922196;29;20526;-75
2022/01/23 11:27:08;;;;;;;11.87;7.00;;;4.80;99.90;;;5.54;100.00;99935.16;4918691;29;20545;-75
2022/01/23 11:29:52;;;;;;;12.30;8.47;;;5.00;99.90;;;5.53;100.00;99938.69;4920133;29;21019;-75
2022/01/23 11:32:24;;;;;;;14.17;8.50;;;4.90;99.90;;;5.55;100.00;99923.81;4919874;29;20565;-74
2022/01/23 11:35:05;;;;;;;14.50;8.10;;;4.80;99.90;;;5.62;100.00;99928.59;4920612;29;21637;-75
2022/01/23 11:37:39;;;;;;;15.47;7.70;;;4.90;99.90;;;5.67;100.00;99929.09;4921795;29;20871;-75
2022/01/23 11:40:27;;;;;;;14.30;9.30;;;4.90;99.90;;;5.68;100.00;99930.75;4922155;29;20502;-76
2022/01/23 11:54:35;;;;;;;15.63;8.20;;;5.00;99.90;;;5.72;100.00;99921.81;4919083;29;20502;-75
2022/01/23 11:57:26;;;;;;;16.60;10.00;;;5.00;99.90;;;5.76;100.00;99921.47;4920246;29;20557;-74
2022/01/23 12:00:02;;;;;;;13.70;8.83;;;5.00;99.90;;;5.77;100.00;99930.91;4920249;29;20540;-74
2022/01/23 12:02:39;;;;;;;13.30;8.80;;;5.20;99.90;;;5.77;100.00;99919.69;4917717;29;20467;-74
2022/01/23 12:05:26;;;;;;;14.80;8.53;;;5.20;99.90;;;5.75;100.00;99919.81;4919585;29;20468;-75
2022/01/23 12:08:32;;;;;;;12.43;7.43;;;5.00;99.90;;;5.72;100.00;99917.47;4919673;29;21054;-75
2022/01/23 12:17:35;;;;;;;16.00;8.30;;;5.30;99.90;;;5.78;100.00;99905.78;4918539;29;20462;-75
2022/01/23 12:20:06;;;;;;;15.13;9.30;;;5.30;99.90;;;5.78;100.00;99904.03;4917300;29;20495;-75
2022/01/23 12:22:59;;;;;;;16.07;9.87;;;5.20;99.90;;;5.77;100.00;99906.72;4921253;29;20872;-77
2022/01/23 12:25:39;;;;;;;17.33;8.70;;;5.30;99.90;;;5.77;100.00;99904.13;4905550;29;20464;-75
2022/01/23 12:28:17;;;;;;;16.23;10.10;;;5.30;99.90;;;5.73;100.00;99900.94;4923548;29;20466;-75
2022/01/23 12:30:49;;;;;;;16.43;9.57;;;5.20;99.90;;;5.74;100.00;99894.81;4921147;29;21026;-75
2022/01/23 12:33:51;;;;;;;18.17;8.83;;;5.10;99.90;;;5.78;100.00;99900.59;4920466;29;20562;-75
2022/01/23 12:36:26;;;;;;;14.40;8.67;;;5.10;99.90;;;5.82;100.00;99889.06;4919332;29;20490;-75
2022/01/23 12:38:58;;;;;;;15.07;9.43;;;5.20;99.90;;;5.84;100.00;99885.41;4921123;29;20473;-75
2022/01/23 12:41:34;;;;;;;14.53;8.70;;;5.20;99.90;;;5.85;100.00;99875.84;4918375;29;20475;-75
2022/01/23 12:44:07;;;;;;;15.73;7.93;;;5.20;99.90;;;5.86;100.00;99878.38;4921717;29;20505;-75
2022/01/23 12:46:40;;;;;;;15.23;8.23;;;5.20;99.90;;;5.92;100.00;99882.28;4920131;28;21102;-75
2022/01/23 12:49:25;;;;;;;11.67;7.67;;;5.20;99.90;;;5.92;100.00;99882.28;4918798;29;20466;-75
2022/01/23 12:52:14;;;;;;;13.23;8.10;;;5.30;99.90;;;5.95;100.00;99861.28;4921086;29;20526;-75
2022/01/23 12:54:58;;;;;;;67.40;26.93;;;5.50;99.90;;;5.87;100.00;99866.22;4921623;29;20478;-75
2022/01/23 12:57:36;;;;;;;13.90;7.90;;;5.30;99.90;;;5.93;100.00;99865.78;4919947;29;20986;-75
2022/01/23 13:00:16;;;;;;;11.00;7.90;;;5.40;99.90;;;5.95;100.00;99856.94;4922572;29;20494;-75
2022/01/23 13:02:48;;;;;;;14.27;8.23;;;5.40;99.90;;;5.94;100.00;99844.06;4921320;29;20562;-75
2022/01/23 13:05:20;;;;;;;14.00;8.07;;;5.40;99.90;;;5.97;100.00;99849.03;4919330;29;20843;-75
2022/01/23 13:08:05;;;;;;;15.50;7.50;;;5.40;99.90;;;6.01;100.00;99845.25;4922098;29;20534;-75
2022/01/23 13:10:57;;;;;;;12.33;8.00;;;5.40;99.90;;;6.05;100.00;99841.50;4922790;29;20506;-75
2022/01/23 13:13:36;;;;;;;10.93;6.93;;;5.30;99.90;;;6.08;100.00;99844.69;4922433;29;20526;-75
2022/01/23 13:16:26;;;;;;;11.67;7.50;;;5.50;99.90;;;6.11;100.00;99843.63;4924104;29;20467;-75
2022/01/23 13:19:43;;;;;;;15.23;7.50;;;5.40;99.90;;;6.10;100.00;99842.00;4923400;29;20471;-75
2022/01/23 13:31:07;;;;;;;10.33;6.67;;;5.50;99.90;;;6.13;100.00;99833.97;4922019;29;20582;-75
2022/01/23 13:33:40;;;;;;;12.97;7.70;;;5.40;99.90;;;6.08;100.00;99839.50;4925107;29;20820;-75
2022/01/23 13:36:11;;;;;;;12.03;6.97;;;5.30;99.90;;;6.14;100.00;99835.63;4923917;29;20451;-75
2022/01/23 13:38:43;;;;;;;12.17;6.93;;;5.50;99.90;;;6.18;100.00;99834.44;4925033;29;20474;-75
2022/01/23 13:41:23;;;;;;;11.67;7.43;;;5.50;99.90;;;6.20;100.00;99845.56;4924734;29;21106;-75
2022/01/23 13:51:03;;;;;;;12.13;7.07;;;5.50;99.90;;;6.30;100.00;99845.69;4865779;29;20503;-75
2022/01/23 13:53:07;;;;;;;12.47;7.10;;;5.60;99.90;;;6.32;100.00;99846.38;4925179;29;20477;-75
2022/01/23 13:58:37;;;;;;;10.57;7.37;;;5.50;99.90;;;6.28;100.00;99843.19;4923979;29;20471;-75
2022/01/23 14:01:33;;;;;;;15.47;7.80;;;5.60;99.90;;;6.31;100.00;99831.75;4923689;29;20509;-75
2022/01/23 14:04:04;;;;;;;10.57;7.07;;;5.70;99.90;;;6.32;100.00;99833.41;4922176;29;20899;-75
2022/01/23 14:06:35;;;;;;;11.00;6.70;;;5.70;99.90;;;6.32;100.00;99839.41;4922397;29;20972;-75
2022/01/23 14:09:09;;;;;;;12.50;6.60;;;5.70;99.90;;;6.34;100.00;99831.53;4923254;29;21000;-75
2022/01/23 14:11:39;;;;;;;11.70;7.20;;;5.60;99.90;;;6.38;100.00;99832.97;4922533;29;20561;-75
2022/01/23 14:14:18;;;;;;;12.43;7.37;;;5.70;99.90;;;6.33;100.00;99830.69;4922793;29;20451;-75
2022/01/23 14:16:51;;;;;;;11.83;7.20;;;5.60;99.90;;;6.34;100.00;99826.34;4922428;29;20884;-75
2022/01/23 14:19:25;;;;;;;11.00;6.53;;;5.60;99.90;;;6.39;100.00;99835.41;4922642;29;20447;-75
2022/01/23 14:21:59;;;;;;;14.10;7.10;;;5.80;99.90;;;6.36;100.00;99835.66;4921884;29;21025;-75
2022/01/23 14:24:33;;;;;;;11.60;7.10;;;5.70;99.90;;;6.42;100.00;99836.97;4923481;29;20458;-75
2022/01/23 14:27:08;;;;;;;12.40;7.10;;;5.80;99.90;;;6.34;100.00;99834.97;4922577;29;20470;-76
2022/01/23 14:29:50;;;;;;;11.80;7.10;;;5.70;99.90;;;6.35;100.00;99823.59;4921845;29;20498;-75
2022/01/23 14:32:29;;;;;;;8.47;6.23;;;5.70;99.90;;;6.34;100.00;99832.34;4920970;29;20502;-75
2022/01/23 14:35:08;;;;;;;17.93;7.40;;;5.70;99.90;;;6.33;100.00;99820.31;4923564;29;20462;-75
2022/01/23 14:37:39;;;;;;;12.43;8.20;;;5.70;99.90;;;6.27;100.00;99825.97;4924644;29;20454;-75
2022/01/23 14:40:15;;;;;;;8.57;5.83;;;5.70;99.90;;;6.23;100.00;99821.94;4921651;29;20841;-75
2022/01/23 14:43:10;;;;;;;12.20;6.43;;;5.80;99.90;;;6.27;100.00;99823.38;4921771;29;20462;-75
2022/01/23 14:45:43;;;;;;;10.60;6.60;;;5.80;99.90;;;6.25;100.00;99820.03;4924233;29;20482;-75
2022/01/23 14:48:16;;;;;;;22.63;9.80;;;5.80;99.90;;;6.25;100.00;99830.44;4927022;29;20489;-75
2022/01/23 14:50:53;;;;;;;13.10;7.60;;;5.80;99.90;;;6.20;100.00;99835.16;4927584;29;20503;-75
2022/01/23 14:53:26;;;;;;;13.40;7.93;;;5.60;99.90;;;6.22;100.00;99835.03;4928559;29;20470;-75
2022/01/23 14:56:01;;;;;;;16.33;8.90;;;5.70;99.90;;;6.19;100.00;99832.66;4928204;29;20465;-75
2022/01/23 14:58:36;;;;;;;9.67;5.93;;;5.60;99.90;;;6.17;100.00;99840.59;4927871;29;20465;-75
2022/01/23 15:01:10;;;;;;;13.47;6.13;;;5.50;99.90;;;6.08;100.00;99834.31;4927260;29;20459;-75
2022/01/23 15:03:44;;;;;;;8.30;5.87;;;5.50;99.90;;;6.11;100.00;99841.03;4928144;29;20553;-75
2022/01/23 15:06:31;;;;;;;10.20;5.83;;;5.60;99.90;;;6.11;100.00;99840.22;4926465;29;20469;-75
2022/01/23 15:09:06;;;;;;;7.77;5.63;;;5.60;99.90;;;6.11;100.00;99842.81;4927385;29;20513;-75
2022/01/23 15:11:37;;;;;;;7.80;5.20;;;5.60;99.90;;;6.11;100.00;99846.22;4927741;29;20544;-75
2022/01/23 15:14:11;;;;;;;12.53;5.87;;;5.60;99.90;;;6.14;100.00;99846.03;4927580;29;20465;-75
2022/01/23 15:16:41;;;;;;;11.07;6.13;;;5.60;99.90;;;6.18;100.00;99833.63;4926741;29;20459;-75